sensor_id;sensor_type;location;lat;lon;timestamp;P1;durP1;ratioP1;P2;durP2;ratioP2
2644;SDS011;15377;48.540;9.268;2022-12-20T00:00:47;40.90;;;28.87;;
2644;SDS011;15377;48.540;9.268;2022-12-20T00:03:12;40.83;;;27.77;;
2644;SDS011;15377;48.540;9.268;2022-12-20T00:05:39;39.37;;;26.70;;
2644;SDS011;15377;48.540;9.268;2022-12-20T00:08:05;41.00;;;28.35;;
2644;SDS011;15377;48.540;9.268;2022-12-20T00:10:38;39.05;;;27.05;;
2644;SDS011;15377;48.540;9.268;2022-12-20T00:13:07;45.30;;;28.27;;
2644;SDS011;15377;48.540;9.268;2022-12-20T00:15:33;40.47;;;26.83;;
2644;SDS011;15377;48.540;9.268;2022-12-20T00:17:59;43.87;;;27.93;;
2644;SDS011;15377;48.540;9.268;2022-12-20T00:20:25;41.83;;;27.47;;
2644;SDS011;15377;48.540;9.268;2022-12-20T00:22:51;42.80;;;27.83;;
2644;SDS011;15377;48.540;9.268;2022-12-20T00:25:17;41.50;;;26.00;;
2644;SDS011;15377;48.540;9.268;2022-12-20T00:27:44;42.05;;;27.00;;
2644;SDS011;15377;48.540;9.268;2022-12-20T00:30:09;41.13;;;25.20;;
2644;SDS011;15377;48.540;9.268;2022-12-20T00:32:35;37.20;;;23.00;;
2644;SDS011;15377;48.540;9.268;2022-12-20T00:35:00;36.57;;;25.03;;
2644;SDS011;15377;48.540;9.268;2022-12-20T00:37:26;39.73;;;25.40;;
2644;SDS011;15377;48.540;9.268;2022-12-20T00:39:51;41.60;;;24.57;;
2644;SDS011;15377;48.540;9.268;2022-12-20T00:42:16;41.40;;;26.20;;
2644;SDS011;15377;48.540;9.268;2022-12-20T00:44:42;36.47;;;23.80;;
2644;SDS011;15377;48.540;9.268;2022-12-20T00:47:07;34.83;;;21.93;;
2644;SDS011;15377;48.540;9.268;2022-12-20T00:49:32;41.20;;;24.20;;
2644;SDS011;15377;48.540;9.268;2022-12-20T00:51:57;38.17;;;22.73;;
2644;SDS011;15377;48.540;9.268;2022-12-20T00:54:23;39.93;;;23.10;;
2644;SDS011;15377;48.540;9.268;2022-12-20T00:56:48;37.97;;;21.93;;
2644;SDS011;15377;48.540;9.268;2022-12-20T00:59:14;35.10;;;23.63;;
2644;SDS011;15377;48.540;9.268;2022-12-20T01:01:39;40.67;;;24.97;;
2644;SDS011;15377;48.540;9.268;2022-12-20T01:04:04;41.90;;;25.03;;
2644;SDS011;15377;48.540;9.268;2022-12-20T01:06:30;35.03;;;24.20;;
2644;SDS011;15377;48.540;9.268;2022-12-20T01:08:56;36.45;;;25.63;;
2644;SDS011;15377;48.540;9.268;2022-12-20T01:11:23;41.90;;;25.33;;
2644;SDS011;15377;48.540;9.268;2022-12-20T01:13:54;35.72;;;25.13;;
2644;SDS011;15377;48.540;9.268;2022-12-20T01:16:22;38.50;;;24.08;;
2644;SDS011;15377;48.540;9.268;2022-12-20T01:18:51;41.97;;;25.35;;
2644;SDS011;15377;48.540;9.268;2022-12-20T01:21:17;38.80;;;23.50;;
2644;SDS011;15377;48.540;9.268;2022-12-20T01:23:44;37.35;;;25.08;;
2644;SDS011;15377;48.540;9.268;2022-12-20T01:26:11;36.67;;;23.98;;
2644;SDS011;15377;48.540;9.268;2022-12-20T01:28:39;36.60;;;23.00;;
2644;SDS011;15377;48.540;9.268;2022-12-20T01:31:06;41.47;;;23.25;;
2644;SDS011;15377;48.540;9.268;2022-12-20T01:33:33;35.13;;;22.65;;
2644;SDS011;15377;48.540;9.268;2022-12-20T01:36:00;37.95;;;26.00;;
2644;SDS011;15377;48.540;9.268;2022-12-20T01:38:27;38.05;;;25.52;;
2644;SDS011;15377;48.540;9.268;2022-12-20T01:40:53;41.38;;;25.30;;
2644;SDS011;15377;48.540;9.268;2022-12-20T01:43:19;33.07;;;23.40;;
2644;SDS011;15377;48.540;9.268;2022-12-20T01:45:45;36.17;;;25.90;;
2644;SDS011;15377;48.540;9.268;2022-12-20T01:48:11;37.23;;;24.40;;
2644;SDS011;15377;48.540;9.268;2022-12-20T01:50:45;37.65;;;25.15;;
2644;SDS011;15377;48.540;9.268;2022-12-20T01:53:12;38.25;;;23.48;;
2644;SDS011;15377;48.540;9.268;2022-12-20T01:55:39;32.55;;;22.55;;
2644;SDS011;15377;48.540;9.268;2022-12-20T01:58:06;35.77;;;24.87;;
2644;SDS011;15377;48.540;9.268;2022-12-20T02:00:34;44.92;;;26.98;;
2644;SDS011;15377;48.540;9.268;2022-12-20T02:03:03;47.92;;;28.50;;
2644;SDS011;15377;48.540;9.268;2022-12-20T02:05:35;39.25;;;26.85;;
2644;SDS011;15377;48.540;9.268;2022-12-20T02:08:02;39.63;;;24.00;;
2644;SDS011;15377;48.540;9.268;2022-12-20T02:16:05;41.97;;;26.95;;
2644;SDS011;15377;48.540;9.268;2022-12-20T02:21:13;35.10;;;25.38;;
2644;SDS011;15377;48.540;9.268;2022-12-20T02:24:02;36.10;;;24.17;;
2644;SDS011;15377;48.540;9.268;2022-12-20T02:29:32;34.80;;;23.52;;
2644;SDS011;15377;48.540;9.268;2022-12-20T02:32:21;37.97;;;24.58;;
2644;SDS011;15377;48.540;9.268;2022-12-20T02:34:50;36.05;;;22.33;;
2644;SDS011;15377;48.540;9.268;2022-12-20T02:37:16;35.60;;;24.05;;
2644;SDS011;15377;48.540;9.268;2022-12-20T02:39:41;39.03;;;23.97;;
2644;SDS011;15377;48.540;9.268;2022-12-20T02:42:10;37.42;;;22.70;;
2644;SDS011;15377;48.540;9.268;2022-12-20T02:44:41;37.55;;;24.75;;
2644;SDS011;15377;48.540;9.268;2022-12-20T02:47:30;36.35;;;22.92;;
2644;SDS011;15377;48.540;9.268;2022-12-20T02:50:01;34.03;;;21.00;;
2644;SDS011;15377;48.540;9.268;2022-12-20T02:52:28;32.00;;;21.17;;
2644;SDS011;15377;48.540;9.268;2022-12-20T02:54:55;32.33;;;22.05;;
2644;SDS011;15377;48.540;9.268;2022-12-20T03:00:10;30.85;;;22.15;;
2644;SDS011;15377;48.540;9.268;2022-12-20T03:02:47;31.98;;;22.60;;
2644;SDS011;15377;48.540;9.268;2022-12-20T03:05:33;37.47;;;25.67;;
2644;SDS011;15377;48.540;9.268;2022-12-20T03:08:01;29.58;;;20.88;;
2644;SDS011;15377;48.540;9.268;2022-12-20T03:10:27;31.80;;;20.90;;
2644;SDS011;15377;48.540;9.268;2022-12-20T03:12:52;30.63;;;20.20;;
2644;SDS011;15377;48.540;9.268;2022-12-20T03:15:17;28.57;;;19.03;;
2644;SDS011;15377;48.540;9.268;2022-12-20T03:17:43;33.27;;;25.37;;
2644;SDS011;15377;48.540;9.268;2022-12-20T03:20:09;32.73;;;21.77;;
2644;SDS011;15377;48.540;9.268;2022-12-20T03:22:35;29.73;;;22.02;;
2644;SDS011;15377;48.540;9.268;2022-12-20T03:25:01;31.97;;;20.90;;
2644;SDS011;15377;48.540;9.268;2022-12-20T03:27:26;30.73;;;22.20;;
2644;SDS011;15377;48.540;9.268;2022-12-20T03:29:52;33.55;;;22.27;;
2644;SDS011;15377;48.540;9.268;2022-12-20T03:32:18;35.17;;;22.17;;
2644;SDS011;15377;48.540;9.268;2022-12-20T03:34:44;32.97;;;21.87;;
2644;SDS011;15377;48.540;9.268;2022-12-20T03:37:09;33.97;;;22.73;;
2644;SDS011;15377;48.540;9.268;2022-12-20T03:39:34;35.97;;;21.60;;
2644;SDS011;15377;48.540;9.268;2022-12-20T03:42:00;31.90;;;23.20;;
2644;SDS011;15377;48.540;9.268;2022-12-20T03:44:25;28.00;;;19.23;;
2644;SDS011;15377;48.540;9.268;2022-12-20T03:46:50;29.77;;;19.77;;
2644;SDS011;15377;48.540;9.268;2022-12-20T03:49:16;27.30;;;17.70;;
2644;SDS011;15377;48.540;9.268;2022-12-20T03:51:41;25.80;;;18.87;;
2644;SDS011;15377;48.540;9.268;2022-12-20T03:54:06;32.53;;;20.23;;
2644;SDS011;15377;48.540;9.268;2022-12-20T03:56:32;34.27;;;21.90;;
2644;SDS011;15377;48.540;9.268;2022-12-20T03:58:57;32.57;;;21.40;;
2644;SDS011;15377;48.540;9.268;2022-12-20T04:01:24;33.87;;;20.67;;
2644;SDS011;15377;48.540;9.268;2022-12-20T04:03:51;33.40;;;22.33;;
2644;SDS011;15377;48.540;9.268;2022-12-20T04:06:16;32.00;;;23.20;;
2644;SDS011;15377;48.540;9.268;2022-12-20T04:08:42;30.80;;;23.03;;
2644;SDS011;15377;48.540;9.268;2022-12-20T04:11:08;31.37;;;22.37;;
2644;SDS011;15377;48.540;9.268;2022-12-20T04:13:46;31.02;;;20.98;;
2644;SDS011;15377;48.540;9.268;2022-12-20T04:16:13;34.15;;;23.35;;
2644;SDS011;15377;48.540;9.268;2022-12-20T04:18:41;34.97;;;23.00;;
2644;SDS011;15377;48.540;9.268;2022-12-20T04:21:06;35.50;;;23.27;;
2644;SDS011;15377;48.540;9.268;2022-12-20T04:23:36;32.00;;;21.87;;
2644;SDS011;15377;48.540;9.268;2022-12-20T04:26:03;30.33;;;20.98;;
2644;SDS011;15377;48.540;9.268;2022-12-20T04:28:30;29.35;;;18.77;;
2644;SDS011;15377;48.540;9.268;2022-12-20T04:30:57;28.33;;;19.88;;
2644;SDS011;15377;48.540;9.268;2022-12-20T04:33:23;32.40;;;20.40;;
2644;SDS011;15377;48.540;9.268;2022-12-20T04:35:49;28.15;;;21.20;;
2644;SDS011;15377;48.540;9.268;2022-12-20T04:38:14;31.00;;;21.50;;
2644;SDS011;15377;48.540;9.268;2022-12-20T04:40:39;29.83;;;20.10;;
2644;SDS011;15377;48.540;9.268;2022-12-20T04:43:05;29.03;;;19.03;;
2644;SDS011;15377;48.540;9.268;2022-12-20T04:45:32;31.27;;;20.50;;
2644;SDS011;15377;48.540;9.268;2022-12-20T04:47:57;27.98;;;19.92;;
2644;SDS011;15377;48.540;9.268;2022-12-20T04:50:23;28.80;;;20.53;;
2644;SDS011;15377;48.540;9.268;2022-12-20T04:52:48;28.17;;;19.30;;
2644;SDS011;15377;48.540;9.268;2022-12-20T04:55:36;27.15;;;19.17;;
2644;SDS011;15377;48.540;9.268;2022-12-20T04:58:06;30.30;;;20.40;;
2644;SDS011;15377;48.540;9.268;2022-12-20T05:00:31;28.40;;;20.70;;
2644;SDS011;15377;48.540;9.268;2022-12-20T05:02:58;28.25;;;19.85;;
2644;SDS011;15377;48.540;9.268;2022-12-20T05:05:23;30.67;;;20.47;;
2644;SDS011;15377;48.540;9.268;2022-12-20T05:07:49;32.20;;;18.87;;
2644;SDS011;15377;48.540;9.268;2022-12-20T05:10:15;32.35;;;21.05;;
2644;SDS011;15377;48.540;9.268;2022-12-20T05:12:41;28.50;;;19.67;;
2644;SDS011;15377;48.540;9.268;2022-12-20T05:15:07;30.73;;;21.90;;
2644;SDS011;15377;48.540;9.268;2022-12-20T05:17:33;28.00;;;19.67;;
2644;SDS011;15377;48.540;9.268;2022-12-20T05:19:59;29.67;;;19.80;;
2644;SDS011;15377;48.540;9.268;2022-12-20T05:22:24;26.80;;;19.23;;
2644;SDS011;15377;48.540;9.268;2022-12-20T05:25:11;26.20;;;18.77;;
2644;SDS011;15377;48.540;9.268;2022-12-20T05:27:56;28.15;;;19.70;;
2644;SDS011;15377;48.540;9.268;2022-12-20T05:30:21;22.63;;;15.53;;
2644;SDS011;15377;48.540;9.268;2022-12-20T05:32:47;26.08;;;18.33;;
2644;SDS011;15377;48.540;9.268;2022-12-20T05:35:13;26.27;;;18.40;;
2644;SDS011;15377;48.540;9.268;2022-12-20T05:37:38;30.83;;;19.00;;
2644;SDS011;15377;48.540;9.268;2022-12-20T05:40:04;29.27;;;20.77;;
2644;SDS011;15377;48.540;9.268;2022-12-20T05:42:30;28.33;;;18.13;;
2644;SDS011;15377;48.540;9.268;2022-12-20T05:44:55;27.27;;;19.73;;
2644;SDS011;15377;48.540;9.268;2022-12-20T05:47:21;28.17;;;16.70;;
2644;SDS011;15377;48.540;9.268;2022-12-20T05:49:46;31.30;;;18.00;;
2644;SDS011;15377;48.540;9.268;2022-12-20T05:52:12;30.83;;;19.90;;
2644;SDS011;15377;48.540;9.268;2022-12-20T05:54:37;27.17;;;17.80;;
2644;SDS011;15377;48.540;9.268;2022-12-20T05:57:02;27.90;;;18.30;;
2644;SDS011;15377;48.540;9.268;2022-12-20T05:59:28;26.27;;;17.50;;
2644;SDS011;15377;48.540;9.268;2022-12-20T06:01:53;23.73;;;16.60;;
2644;SDS011;15377;48.540;9.268;2022-12-20T06:04:19;25.90;;;17.07;;
2644;SDS011;15377;48.540;9.268;2022-12-20T06:06:44;24.20;;;17.50;;
2644;SDS011;15377;48.540;9.268;2022-12-20T06:09:10;22.77;;;15.73;;
2644;SDS011;15377;48.540;9.268;2022-12-20T06:11:36;26.57;;;17.10;;
2644;SDS011;15377;48.540;9.268;2022-12-20T06:14:01;25.70;;;17.70;;
2644;SDS011;15377;48.540;9.268;2022-12-20T06:16:27;29.13;;;18.77;;
2644;SDS011;15377;48.540;9.268;2022-12-20T06:18:53;24.57;;;16.70;;
2644;SDS011;15377;48.540;9.268;2022-12-20T06:21:18;26.07;;;16.70;;
2644;SDS011;15377;48.540;9.268;2022-12-20T06:23:44;25.87;;;17.60;;
2644;SDS011;15377;48.540;9.268;2022-12-20T06:26:09;27.03;;;16.80;;
2644;SDS011;15377;48.540;9.268;2022-12-20T06:28:35;22.13;;;16.00;;
2644;SDS011;15377;48.540;9.268;2022-12-20T06:31:06;23.67;;;15.52;;
2644;SDS011;15377;48.540;9.268;2022-12-20T06:33:33;24.33;;;15.20;;
2644;SDS011;15377;48.540;9.268;2022-12-20T06:35:58;26.90;;;15.63;;
2644;SDS011;15377;48.540;9.268;2022-12-20T06:38:23;18.53;;;13.70;;
2644;SDS011;15377;48.540;9.268;2022-12-20T06:40:49;24.53;;;16.57;;
2644;SDS011;15377;48.540;9.268;2022-12-20T06:43:14;23.53;;;16.37;;
2644;SDS011;15377;48.540;9.268;2022-12-20T06:45:40;24.90;;;16.90;;
2644;SDS011;15377;48.540;9.268;2022-12-20T06:48:05;25.03;;;16.83;;
2644;SDS011;15377;48.540;9.268;2022-12-20T06:50:31;25.90;;;16.13;;
2644;SDS011;15377;48.540;9.268;2022-12-20T06:52:56;26.20;;;17.40;;
2644;SDS011;15377;48.540;9.268;2022-12-20T06:55:22;26.80;;;16.80;;
2644;SDS011;15377;48.540;9.268;2022-12-20T06:57:56;24.70;;;17.98;;
2644;SDS011;15377;48.540;9.268;2022-12-20T07:00:22;28.80;;;17.40;;
2644;SDS011;15377;48.540;9.268;2022-12-20T07:02:48;21.87;;;16.63;;
2644;SDS011;15377;48.540;9.268;2022-12-20T07:05:13;24.53;;;16.03;;
2644;SDS011;15377;48.540;9.268;2022-12-20T07:07:38;22.83;;;14.90;;
2644;SDS011;15377;48.540;9.268;2022-12-20T07:10:05;24.67;;;15.93;;
2644;SDS011;15377;48.540;9.268;2022-12-20T07:12:31;24.92;;;16.80;;
2644;SDS011;15377;48.540;9.268;2022-12-20T07:14:57;21.90;;;15.23;;
2644;SDS011;15377;48.540;9.268;2022-12-20T07:17:23;25.13;;;15.07;;
2644;SDS011;15377;48.540;9.268;2022-12-20T07:19:48;24.43;;;16.77;;
2644;SDS011;15377;48.540;9.268;2022-12-20T07:22:13;22.87;;;17.00;;
2644;SDS011;15377;48.540;9.268;2022-12-20T07:24:38;24.90;;;17.13;;
2644;SDS011;15377;48.540;9.268;2022-12-20T07:27:06;26.00;;;17.07;;
2644;SDS011;15377;48.540;9.268;2022-12-20T07:29:32;25.10;;;15.15;;
2644;SDS011;15377;48.540;9.268;2022-12-20T07:31:57;29.40;;;16.37;;
2644;SDS011;15377;48.540;9.268;2022-12-20T07:34:23;20.70;;;14.60;;
2644;SDS011;15377;48.540;9.268;2022-12-20T07:36:48;23.90;;;14.97;;
2644;SDS011;15377;48.540;9.268;2022-12-20T07:39:14;20.67;;;14.10;;
2644;SDS011;15377;48.540;9.268;2022-12-20T07:41:39;24.03;;;15.33;;
2644;SDS011;15377;48.540;9.268;2022-12-20T07:44:05;20.30;;;15.30;;
2644;SDS011;15377;48.540;9.268;2022-12-20T07:46:30;20.73;;;14.30;;
2644;SDS011;15377;48.540;9.268;2022-12-20T07:48:56;19.90;;;14.37;;
2644;SDS011;15377;48.540;9.268;2022-12-20T07:51:25;20.73;;;13.60;;
2644;SDS011;15377;48.540;9.268;2022-12-20T07:53:57;23.25;;;14.95;;
2644;SDS011;15377;48.540;9.268;2022-12-20T07:56:25;24.38;;;15.48;;
2644;SDS011;15377;48.540;9.268;2022-12-20T07:58:53;26.95;;;15.25;;
2644;SDS011;15377;48.540;9.268;2022-12-20T08:01:24;20.65;;;14.60;;
2644;SDS011;15377;48.540;9.268;2022-12-20T08:03:52;22.33;;;14.15;;
2644;SDS011;15377;48.540;9.268;2022-12-20T08:06:21;24.75;;;13.90;;
2644;SDS011;15377;48.540;9.268;2022-12-20T08:08:48;21.33;;;13.70;;
2644;SDS011;15377;48.540;9.268;2022-12-20T08:11:17;18.75;;;13.45;;
2644;SDS011;15377;48.540;9.268;2022-12-20T08:13:43;21.02;;;13.65;;
2644;SDS011;15377;48.540;9.268;2022-12-20T08:16:09;20.20;;;13.03;;
2644;SDS011;15377;48.540;9.268;2022-12-20T08:18:34;22.40;;;14.27;;
2644;SDS011;15377;48.540;9.268;2022-12-20T08:21:00;25.20;;;15.70;;
2644;SDS011;15377;48.540;9.268;2022-12-20T08:23:25;23.30;;;13.73;;
2644;SDS011;15377;48.540;9.268;2022-12-20T08:25:51;24.00;;;13.77;;
2644;SDS011;15377;48.540;9.268;2022-12-20T08:28:16;19.40;;;13.90;;
2644;SDS011;15377;48.540;9.268;2022-12-20T08:30:41;24.33;;;14.00;;
2644;SDS011;15377;48.540;9.268;2022-12-20T08:33:07;22.73;;;13.00;;
2644;SDS011;15377;48.540;9.268;2022-12-20T08:35:42;21.87;;;14.63;;
2644;SDS011;15377;48.540;9.268;2022-12-20T08:38:08;20.08;;;14.45;;
2644;SDS011;15377;48.540;9.268;2022-12-20T08:40:34;19.10;;;14.40;;
2644;SDS011;15377;48.540;9.268;2022-12-20T08:42:59;21.53;;;14.40;;
2644;SDS011;15377;48.540;9.268;2022-12-20T08:45:24;17.70;;;12.03;;
2644;SDS011;15377;48.540;9.268;2022-12-20T08:47:50;20.90;;;14.73;;
2644;SDS011;15377;48.540;9.268;2022-12-20T08:50:15;19.33;;;11.17;;
2644;SDS011;15377;48.540;9.268;2022-12-20T08:52:40;20.27;;;12.50;;
2644;SDS011;15377;48.540;9.268;2022-12-20T08:55:06;20.53;;;12.10;;
2644;SDS011;15377;48.540;9.268;2022-12-20T08:57:31;16.60;;;10.53;;
2644;SDS011;15377;48.540;9.268;2022-12-20T08:59:57;15.87;;;10.03;;
2644;SDS011;15377;48.540;9.268;2022-12-20T09:02:22;17.20;;;10.60;;
2644;SDS011;15377;48.540;9.268;2022-12-20T09:04:47;15.10;;;10.03;;
2644;SDS011;15377;48.540;9.268;2022-12-20T09:07:13;16.73;;;10.20;;
2644;SDS011;15377;48.540;9.268;2022-12-20T09:09:38;19.03;;;10.27;;
2644;SDS011;15377;48.540;9.268;2022-12-20T09:12:03;17.30;;;11.20;;
2644;SDS011;15377;48.540;9.268;2022-12-20T09:14:29;23.37;;;14.03;;
2644;SDS011;15377;48.540;9.268;2022-12-20T09:16:54;15.70;;;10.23;;
2644;SDS011;15377;48.540;9.268;2022-12-20T09:19:20;18.50;;;11.40;;
2644;SDS011;15377;48.540;9.268;2022-12-20T09:21:45;19.10;;;11.13;;
2644;SDS011;15377;48.540;9.268;2022-12-20T09:24:10;20.40;;;12.00;;
2644;SDS011;15377;48.540;9.268;2022-12-20T09:26:36;24.87;;;12.93;;
2644;SDS011;15377;48.540;9.268;2022-12-20T09:29:02;18.17;;;13.00;;
2644;SDS011;15377;48.540;9.268;2022-12-20T09:31:27;20.70;;;11.60;;
2644;SDS011;15377;48.540;9.268;2022-12-20T09:33:54;16.27;;;11.30;;
2644;SDS011;15377;48.540;9.268;2022-12-20T09:36:20;15.88;;;9.63;;
2644;SDS011;15377;48.540;9.268;2022-12-20T09:38:47;17.13;;;10.32;;
2644;SDS011;15377;48.540;9.268;2022-12-20T09:41:30;16.73;;;11.10;;
2644;SDS011;15377;48.540;9.268;2022-12-20T09:43:59;15.43;;;10.30;;
2644;SDS011;15377;48.540;9.268;2022-12-20T09:46:28;15.75;;;9.90;;
2644;SDS011;15377;48.540;9.268;2022-12-20T09:48:54;18.70;;;10.40;;
2644;SDS011;15377;48.540;9.268;2022-12-20T09:51:28;15.50;;;9.23;;
2644;SDS011;15377;48.540;9.268;2022-12-20T09:56:44;14.23;;;9.67;;
2644;SDS011;15377;48.540;9.268;2022-12-20T09:59:17;14.77;;;10.10;;
2644;SDS011;15377;48.540;9.268;2022-12-20T10:01:44;12.77;;;8.93;;
2644;SDS011;15377;48.540;9.268;2022-12-20T10:04:17;12.93;;;8.73;;
2644;SDS011;15377;48.540;9.268;2022-12-20T10:15:18;13.40;;;8.90;;
2644;SDS011;15377;48.540;9.268;2022-12-20T10:23:10;15.80;;;9.13;;
2644;SDS011;15377;48.540;9.268;2022-12-20T10:25:47;14.27;;;9.60;;
2644;SDS011;15377;48.540;9.268;2022-12-20T10:28:17;16.37;;;10.43;;
2644;SDS011;15377;48.540;9.268;2022-12-20T10:30:48;15.23;;;9.83;;
2644;SDS011;15377;48.540;9.268;2022-12-20T10:33:21;13.43;;;9.03;;
2644;SDS011;15377;48.540;9.268;2022-12-20T10:35:47;15.70;;;8.17;;
2644;SDS011;15377;48.540;9.268;2022-12-20T10:38:14;14.63;;;9.20;;
2644;SDS011;15377;48.540;9.268;2022-12-20T10:40:45;13.87;;;8.40;;
2644;SDS011;15377;48.540;9.268;2022-12-20T10:43:27;15.13;;;8.40;;
2644;SDS011;15377;48.540;9.268;2022-12-20T10:46:01;12.60;;;9.40;;
2644;SDS011;15377;48.540;9.268;2022-12-20T10:53:23;15.17;;;9.93;;
2644;SDS011;15377;48.540;9.268;2022-12-20T10:55:51;16.87;;;11.33;;
2644;SDS011;15377;48.540;9.268;2022-12-20T10:58:35;15.73;;;10.70;;
2644;SDS011;15377;48.540;9.268;2022-12-20T11:01:11;13.43;;;9.40;;
2644;SDS011;15377;48.540;9.268;2022-12-20T11:03:48;13.15;;;9.35;;
2644;SDS011;15377;48.540;9.268;2022-12-20T11:06:25;14.37;;;11.07;;
2644;SDS011;15377;48.540;9.268;2022-12-20T11:08:53;15.18;;;10.90;;
2644;SDS011;15377;48.540;9.268;2022-12-20T11:11:36;20.23;;;12.00;;
2644;SDS011;15377;48.540;9.268;2022-12-20T11:14:12;16.73;;;11.37;;
2644;SDS011;15377;48.540;9.268;2022-12-20T11:16:38;16.50;;;12.13;;
2644;SDS011;15377;48.540;9.268;2022-12-20T11:22:08;19.53;;;14.07;;
2644;SDS011;15377;48.540;9.268;2022-12-20T11:24:44;20.43;;;14.67;;
2644;SDS011;15377;48.540;9.268;2022-12-20T11:38:24;21.50;;;14.90;;
2644;SDS011;15377;48.540;9.268;2022-12-20T11:40:58;19.40;;;13.45;;
2644;SDS011;15377;48.540;9.268;2022-12-20T11:46:07;22.57;;;14.60;;
2644;SDS011;15377;48.540;9.268;2022-12-20T11:48:46;21.10;;;16.00;;
2644;SDS011;15377;48.540;9.268;2022-12-20T11:51:21;20.37;;;13.70;;
2644;SDS011;15377;48.540;9.268;2022-12-20T11:53:53;19.13;;;13.00;;
2644;SDS011;15377;48.540;9.268;2022-12-20T11:56:38;14.20;;;11.00;;
2644;SDS011;15377;48.540;9.268;2022-12-20T12:01:52;18.73;;;12.00;;
2644;SDS011;15377;48.540;9.268;2022-12-20T12:04:25;14.30;;;9.90;;
2644;SDS011;15377;48.540;9.268;2022-12-20T12:12:26;16.50;;;13.00;;
2644;SDS011;15377;48.540;9.268;2022-12-20T12:26:14;19.77;;;13.90;;
2644;SDS011;15377;48.540;9.268;2022-12-20T12:28:45;21.47;;;14.10;;
2644;SDS011;15377;48.540;9.268;2022-12-20T12:31:17;19.87;;;12.80;;
2644;SDS011;15377;48.540;9.268;2022-12-20T12:34:05;16.50;;;12.20;;
2644;SDS011;15377;48.540;9.268;2022-12-20T12:37:24;16.87;;;11.20;;
2644;SDS011;15377;48.540;9.268;2022-12-20T12:39:56;14.00;;;9.93;;
2644;SDS011;15377;48.540;9.268;2022-12-20T12:42:42;16.40;;;10.77;;
2644;SDS011;15377;48.540;9.268;2022-12-20T12:45:25;15.90;;;10.00;;
2644;SDS011;15377;48.540;9.268;2022-12-20T12:47:57;14.50;;;9.17;;
2644;SDS011;15377;48.540;9.268;2022-12-20T12:50:27;13.23;;;8.77;;
2644;SDS011;15377;48.540;9.268;2022-12-20T12:52:57;17.23;;;9.50;;
2644;SDS011;15377;48.540;9.268;2022-12-20T12:55:34;14.60;;;8.90;;
2644;SDS011;15377;48.540;9.268;2022-12-20T13:00:54;16.43;;;9.70;;
2644;SDS011;15377;48.540;9.268;2022-12-20T13:11:31;13.30;;;9.70;;
2644;SDS011;15377;48.540;9.268;2022-12-20T13:16:50;17.80;;;11.40;;
2644;SDS011;15377;48.540;9.268;2022-12-20T13:43:05;17.87;;;12.70;;
2644;SDS011;15377;48.540;9.268;2022-12-20T13:45:34;18.53;;;11.27;;
2644;SDS011;15377;48.540;9.268;2022-12-20T13:48:03;17.23;;;12.07;;
2644;SDS011;15377;48.540;9.268;2022-12-20T13:53:04;19.17;;;11.90;;
2644;SDS011;15377;48.540;9.268;2022-12-20T13:55:33;17.37;;;12.13;;
2644;SDS011;15377;48.540;9.268;2022-12-20T13:58:04;15.80;;;11.90;;
2644;SDS011;15377;48.540;9.268;2022-12-20T14:00:35;17.00;;;12.20;;
2644;SDS011;15377;48.540;9.268;2022-12-20T14:03:02;16.60;;;11.30;;
2644;SDS011;15377;48.540;9.268;2022-12-20T14:05:32;17.50;;;11.53;;
2644;SDS011;15377;48.540;9.268;2022-12-20T14:08:01;19.83;;;12.73;;
2644;SDS011;15377;48.540;9.268;2022-12-20T14:10:48;26.40;;;16.83;;
2644;SDS011;15377;48.540;9.268;2022-12-20T14:13:23;20.57;;;14.97;;
2644;SDS011;15377;48.540;9.268;2022-12-20T14:15:50;24.37;;;15.57;;
2644;SDS011;15377;48.540;9.268;2022-12-20T14:20:42;23.60;;;14.40;;
2644;SDS011;15377;48.540;9.268;2022-12-20T14:23:15;25.30;;;15.50;;
2644;SDS011;15377;48.540;9.268;2022-12-20T14:25:47;22.97;;;16.37;;
2644;SDS011;15377;48.540;9.268;2022-12-20T14:28:38;25.23;;;15.23;;
2644;SDS011;15377;48.540;9.268;2022-12-20T14:31:04;23.67;;;15.77;;
2644;SDS011;15377;48.540;9.268;2022-12-20T14:33:37;21.83;;;16.10;;
2644;SDS011;15377;48.540;9.268;2022-12-20T14:36:26;22.80;;;15.87;;
2644;SDS011;15377;48.540;9.268;2022-12-20T14:38:51;21.00;;;14.53;;
2644;SDS011;15377;48.540;9.268;2022-12-20T14:41:36;22.20;;;14.50;;
2644;SDS011;15377;48.540;9.268;2022-12-20T14:44:12;19.80;;;13.20;;
2644;SDS011;15377;48.540;9.268;2022-12-20T14:46:45;20.63;;;12.63;;
2644;SDS011;15377;48.540;9.268;2022-12-20T14:51:47;15.80;;;11.40;;
2644;SDS011;15377;48.540;9.268;2022-12-20T14:54:20;17.87;;;11.63;;
2644;SDS011;15377;48.540;9.268;2022-12-20T14:56:52;18.43;;;12.90;;
2644;SDS011;15377;48.540;9.268;2022-12-20T14:59:24;21.60;;;13.40;;
2644;SDS011;15377;48.540;9.268;2022-12-20T15:01:51;18.67;;;12.67;;
2644;SDS011;15377;48.540;9.268;2022-12-20T15:04:21;19.20;;;13.07;;
2644;SDS011;15377;48.540;9.268;2022-12-20T15:06:58;18.73;;;12.90;;
2644;SDS011;15377;48.540;9.268;2022-12-20T15:09:25;20.02;;;11.80;;
2644;SDS011;15377;48.540;9.268;2022-12-20T15:11:50;16.97;;;13.00;;
2644;SDS011;15377;48.540;9.268;2022-12-20T15:14:25;16.52;;;12.13;;
2644;SDS011;15377;48.540;9.268;2022-12-20T15:16:57;20.40;;;13.98;;
2644;SDS011;15377;48.540;9.268;2022-12-20T15:19:23;17.07;;;12.47;;
2644;SDS011;15377;48.540;9.268;2022-12-20T15:21:49;18.23;;;12.57;;
2644;SDS011;15377;48.540;9.268;2022-12-20T15:24:16;18.02;;;13.20;;
2644;SDS011;15377;48.540;9.268;2022-12-20T15:26:45;21.70;;;14.00;;
2644;SDS011;15377;48.540;9.268;2022-12-20T15:29:18;22.70;;;16.20;;
2644;SDS011;15377;48.540;9.268;2022-12-20T15:31:52;24.65;;;15.38;;
2644;SDS011;15377;48.540;9.268;2022-12-20T15:34:34;19.23;;;13.85;;
2644;SDS011;15377;48.540;9.268;2022-12-20T15:37:01;24.95;;;15.32;;
2644;SDS011;15377;48.540;9.268;2022-12-20T15:39:28;21.00;;;16.20;;
2644;SDS011;15377;48.540;9.268;2022-12-20T15:41:54;19.40;;;14.40;;
2644;SDS011;15377;48.540;9.268;2022-12-20T15:44:24;21.37;;;13.27;;
2644;SDS011;15377;48.540;9.268;2022-12-20T15:46:51;19.83;;;13.50;;
2644;SDS011;15377;48.540;9.268;2022-12-20T15:49:21;21.43;;;14.73;;
2644;SDS011;15377;48.540;9.268;2022-12-20T15:51:48;19.90;;;11.87;;
2644;SDS011;15377;48.540;9.268;2022-12-20T15:56:58;18.98;;;13.45;;
2644;SDS011;15377;48.540;9.268;2022-12-20T15:59:28;24.67;;;16.05;;
2644;SDS011;15377;48.540;9.268;2022-12-20T16:01:54;20.70;;;14.13;;
2644;SDS011;15377;48.540;9.268;2022-12-20T16:04:20;18.67;;;13.60;;
2644;SDS011;15377;48.540;9.268;2022-12-20T16:06:47;21.92;;;13.90;;
2644;SDS011;15377;48.540;9.268;2022-12-20T16:09:14;20.17;;;14.05;;
2644;SDS011;15377;48.540;9.268;2022-12-20T16:11:40;25.83;;;16.60;;
2644;SDS011;15377;48.540;9.268;2022-12-20T16:14:13;21.05;;;13.88;;
2644;SDS011;15377;48.540;9.268;2022-12-20T16:16:41;19.67;;;12.93;;
2644;SDS011;15377;48.540;9.268;2022-12-20T16:19:06;19.77;;;13.70;;
2644;SDS011;15377;48.540;9.268;2022-12-20T16:21:33;19.80;;;14.40;;
2644;SDS011;15377;48.540;9.268;2022-12-20T16:24:00;22.02;;;14.55;;
2644;SDS011;15377;48.540;9.268;2022-12-20T16:26:27;20.98;;;14.80;;
2644;SDS011;15377;48.540;9.268;2022-12-20T16:28:53;20.52;;;14.73;;
2644;SDS011;15377;48.540;9.268;2022-12-20T16:31:29;23.02;;;17.23;;
2644;SDS011;15377;48.540;9.268;2022-12-20T16:33:57;26.83;;;19.45;;
2644;SDS011;15377;48.540;9.268;2022-12-20T16:36:24;21.52;;;14.88;;
2644;SDS011;15377;48.540;9.268;2022-12-20T16:38:50;25.60;;;16.27;;
2644;SDS011;15377;48.540;9.268;2022-12-20T16:41:17;26.10;;;17.25;;
2644;SDS011;15377;48.540;9.268;2022-12-20T16:43:43;26.08;;;17.55;;